Terminal Aerodrome Forecast
Issued by NWS Lake Charles, LA

Home | Current Version | Previous Version | Text Only | Print | Product List | Glossary On
Versions: 1 2 3 4 5 6 7 8 9 10 11 12 13 14 15 16 17 18 19 20 21 22 23 24 25 26 27
000
FTUS44 KLCH 041700 AAA
TAFLCH
TAF AMD
KLCH 041752Z 0418/0518 18010G18KT P6SM SCT015
      TEMPO 0418/0422 BKN015
     FM050200 18005KT 4SM BR VCSH OVC007
     FM050700 36015G20KT 4SM RA BR OVC007
     FM051100 01022G30KT P6SM -RA OVC015=

USA.gov is the U.S. government's official web portal to all federal, state and local government web resources and services.